Time;durP1;ratioP1;P1;durP2;ratioP2;P2;SDS_P1;SDS_P2;PMS_P1;PMS_P2;Temp;Humidity;BMP_temperature;BMP_pressure;BME280_temperature;BME280_humidity;BME280_pressure;Samples;Min_cycle;Max_cycle;Signal;HPM_P1;HPM_P2
2021/06/03 00:04:51;;;;;;;10.53;6.70;;;10.90;99.90;;;;;;5270653;28;20649;-67
2021/06/03 00:07:23;;;;;;;12.33;6.83;;;10.90;99.90;;;;;;5270565;28;20241;-67
2021/06/03 00:09:55;;;;;;;10.47;7.17;;;10.80;99.90;;;;;;5270780;28;20196;-71
2021/06/03 00:12:27;;;;;;;9.90;6.60;;;10.80;99.90;;;;;;5271303;28;20557;-71
2021/06/03 00:14:59;;;;;;;10.03;7.07;;;10.70;99.90;;;;;;5271108;28;20536;-71
2021/06/03 00:21:17;;;;;;;10.17;7.07;;;10.70;99.90;;;;;;5270738;28;20191;-70
2021/06/03 00:23:49;;;;;;;16.20;7.30;;;10.70;99.90;;;;;;5267562;28;20189;-73
2021/06/03 00:26:21;;;;;;;10.30;6.73;;;10.60;99.90;;;;;;5270501;28;20199;-76
2021/06/03 00:28:53;;;;;;;10.77;6.23;;;10.60;99.90;;;;;;5270910;28;20192;-73
2021/06/03 00:31:25;;;;;;;13.97;7.20;;;10.60;99.90;;;;;;5270547;28;20557;-70
2021/06/03 00:33:57;;;;;;;10.07;6.60;;;10.50;99.90;;;;;;5271045;28;20199;-73
2021/06/03 00:36:29;;;;;;;10.10;6.30;;;10.50;99.90;;;;;;5252243;28;20285;-73
2021/06/03 00:39:01;;;;;;;14.07;6.60;;;10.50;99.90;;;;;;5252553;28;20219;-69
2021/06/03 00:41:33;;;;;;;11.97;7.00;;;10.50;99.90;;;;;;5270404;28;20196;-70
2021/06/03 00:44:05;;;;;;;9.37;6.17;;;10.50;99.90;;;;;;5270266;28;20192;-73
2021/06/03 00:46:37;;;;;;;10.63;6.80;;;10.40;99.90;;;;;;5270276;28;20623;-72
2021/06/03 00:49:10;;;;;;;9.10;6.60;;;10.40;99.90;;;;;;5270067;28;20196;-72
2021/06/03 00:51:42;;;;;;;15.83;7.67;;;10.40;99.90;;;;;;5269913;28;20184;-73
2021/06/03 00:54:14;;;;;;;10.03;6.80;;;10.40;99.90;;;;;;5270065;28;20642;-72
2021/06/03 00:56:47;;;;;;;11.80;7.27;;;10.40;99.90;;;;;;5251926;28;20195;-66
2021/06/03 00:59:19;;;;;;;13.43;7.53;;;10.40;99.90;;;;;;5269490;28;20690;-72
2021/06/03 01:01:51;;;;;;;14.17;7.90;;;10.30;99.90;;;;;;5269510;28;20202;-72
2021/06/03 01:04:23;;;;;;;14.27;8.40;;;10.30;99.90;;;;;;5269733;28;20192;-64
2021/06/03 01:06:55;;;;;;;16.33;7.73;;;10.30;99.90;;;;;;5269439;28;20204;-68
2021/06/03 01:09:30;;;;;;;12.90;8.03;;;10.30;99.90;;;;;;5269688;28;20195;-66
2021/06/03 01:12:02;;;;;;;13.73;7.73;;;10.20;99.90;;;;;;5251814;28;20188;-66
2021/06/03 01:14:39;;;;;;;17.07;8.40;;;10.20;99.90;;;;;;5269891;28;20200;-66
2021/06/03 01:17:16;;;;;;;14.60;8.63;;;10.20;99.90;;;;;;5269522;28;20196;-69
2021/06/03 01:19:49;;;;;;;14.83;8.10;;;10.20;99.90;;;;;;5271419;28;20219;-70
2021/06/03 01:22:33;;;;;;;14.80;8.13;;;10.20;99.90;;;;;;5273777;28;20639;-73
2021/06/03 01:25:09;;;;;;;15.50;8.27;;;10.20;99.90;;;;;;5273766;28;20202;-72
2021/06/03 01:27:42;;;;;;;13.63;8.17;;;10.20;99.90;;;;;;5273685;28;20203;-70
2021/06/03 01:30:19;;;;;;;14.17;8.23;;;10.10;99.90;;;;;;5256074;28;20261;-72
2021/06/03 01:33:10;;;;;;;12.03;8.03;;;10.10;99.90;;;;;;5273237;28;20189;-70
2021/06/03 01:35:44;;;;;;;14.97;8.87;;;10.20;99.90;;;;;;5273572;28;20271;-70
2021/06/03 01:38:20;;;;;;;11.53;8.10;;;10.10;99.90;;;;;;5273176;28;20192;-68
2021/06/03 01:40:54;;;;;;;12.80;8.47;;;10.20;99.90;;;;;;5273764;28;20619;-70
2021/06/03 01:43:28;;;;;;;13.00;8.10;;;10.20;99.90;;;;;;5273141;28;20193;-66
2021/06/03 01:49:10;;;;;;;14.13;8.70;;;10.20;99.90;;;;;;5273710;28;20259;-66
2021/06/03 01:51:42;;;;;;;11.27;8.20;;;10.20;99.90;;;;;;5274835;28;20188;-68
2021/06/03 01:54:15;;;;;;;14.50;9.43;;;10.30;99.90;;;;;;5256330;28;20650;-68
2021/06/03 01:56:47;;;;;;;12.03;8.90;;;10.30;99.90;;;;;;5273584;28;20185;-66
2021/06/03 01:59:19;;;;;;;13.97;8.57;;;10.30;99.90;;;;;;5274010;28;20232;-70
2021/06/03 02:05:53;;;;;;;12.37;8.53;;;10.40;99.90;;;;;;5272878;28;20263;-68
2021/06/03 02:08:25;;;;;;;14.17;9.10;;;10.40;99.90;;;;;;5272473;28;20196;-69
2021/06/03 02:10:57;;;;;;;13.23;8.60;;;10.40;99.90;;;;;;5254414;28;20193;-64
2021/06/03 02:13:41;;;;;;;14.03;8.17;;;10.40;99.90;;;;;;5255265;28;20199;-64
2021/06/03 02:16:22;;;;;;;15.23;9.87;;;10.40;99.90;;;;;;5272892;28;20193;-67
2021/06/03 02:19:05;;;;;;;11.80;8.57;;;10.40;99.90;;;;;;5272190;28;20675;-68
2021/06/03 02:21:39;;;;;;;12.87;8.53;;;10.40;99.90;;;;;;5272426;28;20200;-66
2021/06/03 02:24:12;;;;;;;13.73;8.50;;;10.40;99.90;;;;;;5272462;28;20196;-68
2021/06/03 02:26:44;;;;;;;11.00;7.87;;;10.40;99.90;;;;;;5272884;28;20274;-66
2021/06/03 02:29:17;;;;;;;14.67;8.43;;;10.50;99.90;;;;;;5272768;28;20645;-68
2021/06/03 02:31:51;;;;;;;13.83;8.90;;;10.50;99.90;;;;;;5272638;28;20549;-67
2021/06/03 02:34:24;;;;;;;11.90;8.17;;;10.50;99.90;;;;;;5272919;28;20222;-66
2021/06/03 02:36:56;;;;;;;13.50;8.17;;;10.50;99.90;;;;;;5273230;28;20201;-65
2021/06/03 02:39:27;;;;;;;14.13;8.77;;;10.50;99.90;;;;;;5272384;28;20561;-65
2021/06/03 02:41:59;;;;;;;11.77;7.97;;;10.50;99.90;;;;;;5273185;28;20261;-72
2021/06/03 02:44:33;;;;;;;13.07;8.60;;;10.50;99.90;;;;;;5272537;28;20207;-71
2021/06/03 02:47:07;;;;;;;13.50;8.97;;;10.50;99.90;;;;;;5272803;28;20193;-66
2021/06/03 02:49:39;;;;;;;11.63;8.57;;;10.50;99.90;;;;;;5273236;28;20196;-65
2021/06/03 02:52:10;;;;;;;17.43;8.73;;;10.60;99.90;;;;;;5273365;28;20631;-64
2021/06/03 02:54:43;;;;;;;13.70;8.30;;;10.60;99.90;;;;;;5272862;28;20193;-66
2021/06/03 02:57:15;;;;;;;15.23;9.03;;;10.60;99.90;;;;;;5272114;28;20587;-68
2021/06/03 02:59:47;;;;;;;15.67;8.70;;;10.70;99.90;;;;;;5271828;28;20212;-72
2021/06/03 03:02:19;;;;;;;13.07;8.00;;;10.80;99.90;;;;;;5271874;28;20552;-65
2021/06/03 03:04:51;;;;;;;13.80;8.57;;;10.80;99.90;;;;;;5271585;28;20235;-64
2021/06/03 03:07:23;;;;;;;13.77;8.67;;;10.80;99.90;;;;;;5271801;28;20196;-65
2021/06/03 03:09:55;;;;;;;11.90;8.50;;;10.80;99.90;;;;;;5271937;28;20541;-69
2021/06/03 03:12:27;;;;;;;12.43;8.53;;;10.90;99.90;;;;;;5271593;28;20188;-72
2021/06/03 03:14:59;;;;;;;13.43;7.50;;;10.90;99.90;;;;;;5271286;28;20194;-70
2021/06/03 03:17:31;;;;;;;12.83;8.80;;;11.00;99.90;;;;;;5271248;28;20192;-69
2021/06/03 03:20:05;;;;;;;13.60;8.30;;;11.00;99.90;;;;;;5272597;28;20220;-66
2021/06/03 03:22:54;;;;;;;13.30;8.53;;;11.00;99.90;;;;;;5273968;28;20237;-65
2021/06/03 03:25:28;;;;;;;13.53;8.63;;;11.10;99.90;;;;;;5256526;28;20554;-67
2021/06/03 03:28:06;;;;;;;11.10;8.13;;;11.10;99.90;;;;;;5255060;28;20192;-66
2021/06/03 03:30:42;;;;;;;11.60;8.00;;;11.20;99.90;;;;;;5271522;28;20192;-66
2021/06/03 03:33:15;;;;;;;16.67;9.20;;;11.20;99.90;;;;;;5271124;28;20305;-66
2021/06/03 03:35:48;;;;;;;12.13;8.47;;;11.30;99.90;;;;;;5271484;28;20523;-65
2021/06/03 03:38:21;;;;;;;12.37;8.37;;;11.40;99.90;;;;;;5271216;28;20204;-65
2021/06/03 03:40:54;;;;;;;14.47;8.83;;;11.50;99.90;;;;;;5253444;28;20216;-69
2021/06/03 03:43:26;;;;;;;12.30;8.67;;;11.50;99.90;;;;;;5271631;28;20193;-67
2021/06/03 03:45:58;;;;;;;13.63;8.90;;;11.60;99.90;;;;;;5272156;28;20193;-67
2021/06/03 03:48:30;;;;;;;11.07;7.83;;;11.60;99.90;;;;;;5271397;28;20253;-72
2021/06/03 03:51:02;;;;;;;15.43;8.63;;;11.60;99.90;;;;;;5271054;28;20192;-68
2021/06/03 03:53:34;;;;;;;13.40;7.37;;;11.60;99.90;;;;;;5271206;28;20689;-67
2021/06/03 03:56:06;;;;;;;11.83;7.47;;;11.70;99.90;;;;;;5271813;28;20192;-68
2021/06/03 03:58:42;;;;;;;12.53;8.60;;;11.70;99.90;;;;;;5270493;28;20725;-69
2021/06/03 04:01:14;;;;;;;14.37;7.73;;;11.70;99.90;;;;;;5270572;28;20226;-70
2021/06/03 04:03:46;;;;;;;14.47;8.27;;;11.70;99.90;;;;;;5252196;28;20614;-70
2021/06/03 04:06:18;;;;;;;11.07;7.47;;;11.70;99.90;;;;;;5270175;28;20203;-73
2021/06/03 04:08:50;;;;;;;11.70;7.93;;;11.70;99.90;;;;;;5270305;28;20549;-68
2021/06/03 04:11:24;;;;;;;13.23;8.00;;;11.70;99.90;;;;;;5270120;28;20199;-68
2021/06/03 04:13:57;;;;;;;12.00;7.40;;;11.70;99.90;;;;;;5270070;28;20249;-68
2021/06/03 04:16:29;;;;;;;11.87;8.73;;;11.80;99.90;;;;;;5269740;28;20227;-68
2021/06/03 04:19:02;;;;;;;10.20;7.07;;;11.90;99.90;;;;;;5269894;28;20196;-70
2021/06/03 04:21:34;;;;;;;11.40;8.27;;;12.00;99.90;;;;;;5270046;28;20220;-72
2021/06/03 04:24:06;;;;;;;16.07;8.37;;;12.20;99.90;;;;;;5269879;28;20196;-71
2021/06/03 04:26:38;;;;;;;10.77;7.70;;;12.30;99.90;;;;;;5251608;28;20236;-68
2021/06/03 04:29:11;;;;;;;9.70;7.43;;;12.50;99.90;;;;;;5269569;28;20192;-71
2021/06/03 04:31:43;;;;;;;11.40;8.00;;;12.70;99.90;;;;;;5269960;28;20195;-69
2021/06/03 04:34:15;;;;;;;12.50;7.90;;;13.00;99.90;;;;;;5269546;28;20196;-69
2021/06/03 04:36:47;;;;;;;16.23;8.73;;;13.20;99.90;;;;;;5269878;28;20283;-69
2021/06/03 04:39:19;;;;;;;13.30;6.77;;;13.40;99.90;;;;;;5252014;28;20192;-71
2021/06/03 04:41:51;;;;;;;11.67;7.30;;;13.60;99.90;;;;;;5269480;28;20224;-72
2021/06/03 04:44:23;;;;;;;12.27;7.47;;;13.80;99.90;;;;;;5269684;28;20188;-67
2021/06/03 04:46:55;;;;;;;13.73;7.30;;;14.10;99.90;;;;;;5269422;28;20279;-71
2021/06/03 04:49:28;;;;;;;12.00;6.90;;;14.40;99.90;;;;;;5205030;28;20206;-72
2021/06/03 04:52:25;;;;;;;11.57;6.60;;;14.60;99.90;;;;;;5205020;28;20210;-67
2021/06/03 04:55:00;;;;;;;10.47;7.07;;;14.80;99.90;;;;;;5204754;28;20206;-72
2021/06/03 04:57:33;;;;;;;9.90;6.73;;;15.00;99.90;;;;;;5204883;28;20237;-72
2021/06/03 05:00:14;;;;;;;11.23;7.03;;;15.10;99.90;;;;;;5204819;28;20214;-73
2021/06/03 05:06:31;;;;;;;11.07;7.00;;;15.30;99.90;;;;;;5204967;28;20192;-70
2021/06/03 05:09:03;;;;;;;16.47;7.20;;;15.40;99.90;;;;;;5204926;28;20205;-74
2021/06/03 05:11:35;;;;;;;12.90;6.77;;;15.50;99.90;;;;;;5204886;28;20272;-75
2021/06/03 05:14:07;;;;;;;8.63;6.57;;;15.50;99.90;;;;;;5228650;28;20213;-74
2021/06/03 05:16:39;;;;;;;10.70;6.90;;;15.60;99.90;;;;;;5248498;28;20624;-71
2021/06/03 05:22:59;;;;;;;16.27;8.03;;;15.70;99.90;;;;;;5248427;28;20177;-73
2021/06/03 05:25:32;;;;;;;13.43;6.63;;;15.80;99.90;;;;;;5248641;28;20207;-72
2021/06/03 05:28:04;;;;;;;12.93;6.30;;;15.80;99.90;;;;;;5247612;28;20516;-72
2021/06/03 05:30:37;;;;;;;10.77;6.07;;;15.80;99.90;;;;;;5249115;28;20207;-72
2021/06/03 05:33:09;;;;;;;9.97;6.13;;;15.90;99.90;;;;;;5249101;28;20197;-74
2021/06/03 05:35:41;;;;;;;7.63;5.53;;;16.00;99.90;;;;;;5248760;28;20192;-73
2021/06/03 05:38:13;;;;;;;7.93;4.27;;;16.10;99.90;;;;;;5249226;28;20190;-74
2021/06/03 05:40:45;;;;;;;5.45;4.30;;;16.30;99.90;;;;;;5248875;28;20216;-70
2021/06/03 05:43:17;;;;;;;6.30;3.33;;;17.40;99.90;;;;;;5248442;28;20193;-69
2021/06/03 05:45:49;;;;;;;5.72;3.67;;;19.50;99.90;;;;;;5248129;28;20208;-71
2021/06/03 05:48:21;;;;;;;6.45;3.20;;;22.00;99.90;;;;;;5248322;28;20216;-72
2021/06/03 05:50:53;;;;;;;6.20;3.20;;;23.70;99.90;;;;;;5248122;28;20288;-73
2021/06/03 05:53:25;;;;;;;5.28;2.75;;;25.00;99.90;;;;;;5248283;28;20199;-71
2021/06/03 05:55:57;;;;;;;4.57;2.60;;;26.00;99.90;;;;;;5246716;28;20200;-73
2021/06/03 05:58:28;;;;;;;5.65;2.63;;;27.80;99.80;;;;;;5261879;28;20224;-73
2021/06/03 06:01:01;;;;;;;6.30;2.50;;;29.00;94.80;;;;;;5268782;28;20192;-71
2021/06/03 06:03:43;;;;;;;6.78;2.90;;;29.10;91.40;;;;;;5268909;28;20212;-67
2021/06/03 06:06:24;;;;;;;3.78;2.50;;;29.70;87.70;;;;;;5271470;28;20224;-68
2021/06/03 06:08:58;;;;;;;5.20;2.47;;;29.60;84.80;;;;;;5272417;28;20188;-67
2021/06/03 06:11:33;;;;;;;4.55;2.95;;;30.20;83.40;;;;;;5272167;28;20261;-67
2021/06/03 06:14:07;;;;;;;4.18;2.10;;;31.10;78.80;;;;;;5272560;28;20641;-68
2021/06/03 06:16:39;;;;;;;5.47;2.65;;;31.90;75.90;;;;;;5272793;28;20584;-68
2021/06/03 06:19:11;;;;;;;5.57;2.00;;;32.60;73.10;;;;;;5272070;28;20195;-66
2021/06/03 06:21:44;;;;;;;2.95;2.20;;;32.40;72.20;;;;;;5272394;28;20192;-68
2021/06/03 06:24:16;;;;;;;5.10;1.90;;;32.20;70.20;;;;;;5272440;28;20203;-67
2021/06/03 06:26:47;;;;;;;7.43;2.30;;;32.60;69.20;;;;;;5272058;28;20203;-68
2021/06/03 06:29:19;;;;;;;4.07;1.92;;;33.00;69.20;;;;;;5272092;28;20195;-68
2021/06/03 06:31:51;;;;;;;6.38;2.10;;;33.70;68.10;;;;;;5271862;28;20212;-67
2021/06/03 06:34:23;;;;;;;4.82;2.60;;;33.70;65.70;;;;;;5272192;28;20184;-68
2021/06/03 06:36:55;;;;;;;5.10;2.28;;;33.20;66.00;;;;;;5254285;28;20635;-67
2021/06/03 06:39:27;;;;;;;3.50;2.00;;;32.50;65.90;;;;;;5272061;28;20200;-69
2021/06/03 06:42:00;;;;;;;4.80;2.40;;;33.00;66.80;;;;;;5253850;28;20195;-67
2021/06/03 06:44:32;;;;;;;4.97;2.40;;;32.20;64.90;;;;;;5271740;28;20665;-67
2021/06/03 06:47:04;;;;;;;3.95;2.17;;;31.30;67.10;;;;;;5272137;28;20196;-68
2021/06/03 06:49:36;;;;;;;3.47;2.00;;;31.30;66.50;;;;;;5271879;28;20274;-66
2021/06/03 06:52:08;;;;;;;4.32;2.10;;;31.80;65.60;;;;;;5271519;28;20211;-67
2021/06/03 06:54:41;;;;;;;7.93;2.10;;;31.80;63.90;;;;;;5271746;28;20191;-67
2021/06/03 06:57:13;;;;;;;7.70;2.63;;;31.60;63.30;;;;;;5271608;28;20236;-69
2021/06/03 06:59:45;;;;;;;4.13;2.17;;;31.10;64.70;;;;;;5271428;28;20204;-71
2021/06/03 07:02:19;;;;;;;4.93;2.28;;;30.70;64.90;;;;;;5270538;28;20418;-68
2021/06/03 07:04:51;;;;;;;6.07;2.25;;;30.50;64.30;;;;;;5271241;28;20195;-72
2021/06/03 07:07:23;;;;;;;3.65;2.20;;;31.00;65.60;;;;;;5253413;28;20196;-66
2021/06/03 07:09:55;;;;;;;6.60;2.47;;;31.50;63.60;;;;;;5271518;28;20193;-68
2021/06/03 07:12:27;;;;;;;4.40;1.77;;;31.10;63.60;;;;;;5271225;28;20220;-66
2021/06/03 07:15:00;;;;;;;5.28;1.90;;;30.80;65.60;;;;;;5271393;28;20543;-67
2021/06/03 07:17:33;;;;;;;4.40;2.20;;;30.30;67.30;;;;;;5271035;28;20226;-65
2021/06/03 07:20:10;;;;;;;8.10;2.30;;;29.70;68.60;;;;;;5271196;28;20215;-65
2021/06/03 07:22:54;;;;;;;4.22;2.20;;;29.00;68.90;;;;;;5271284;28;20192;-66
2021/06/03 07:25:27;;;;;;;5.72;2.03;;;28.60;70.40;;;;;;5270828;28;20242;-68
2021/06/03 07:27:59;;;;;;;3.78;2.13;;;28.20;72.60;;;;;;5271106;28;20509;-67
2021/06/03 07:30:32;;;;;;;4.88;2.47;;;27.90;72.10;;;;;;5271068;28;20595;-66
2021/06/03 07:37:00;;;;;;;3.25;2.22;;;26.30;72.00;;;;;;5270810;28;20186;-66
2021/06/03 07:39:32;;;;;;;4.55;2.35;;;25.10;71.90;;;;;;5270818;28;20192;-67
2021/06/03 07:42:04;;;;;;;2.92;2.13;;;25.10;77.10;;;;;;5270346;28;20192;-66
2021/06/03 07:44:36;;;;;;;2.70;2.20;;;25.10;76.80;;;;;;5270405;28;20188;-71
2021/06/03 07:47:08;;;;;;;5.90;2.40;;;24.90;76.10;;;;;;5269603;28;20419;-65
2021/06/03 07:53:36;;;;;;;9.20;2.90;;;24.60;75.90;;;;;;5270569;28;20183;-67
2021/06/03 07:56:09;;;;;;;3.25;2.78;;;24.00;77.60;;;;;;5252854;28;20194;-67
2021/06/03 07:58:42;;;;;;;3.67;2.25;;;23.90;79.50;;;;;;5270630;28;20571;-67
2021/06/03 08:01:14;;;;;;;3.15;2.45;;;24.00;76.60;;;;;;5253480;28;20656;-68
2021/06/03 08:03:46;;;;;;;6.22;2.45;;;23.80;75.20;;;;;;5270587;28;20232;-66
2021/06/03 08:06:18;;;;;;;7.35;2.53;;;23.70;77.00;;;;;;5271510;28;20256;-67
2021/06/03 08:08:50;;;;;;;5.20;2.58;;;23.60;76.40;;;;;;5271563;28;20295;-66
2021/06/03 08:11:22;;;;;;;5.68;2.35;;;23.40;75.90;;;;;;5264860;28;20231;-66
2021/06/03 08:13:54;;;;;;;6.07;2.22;;;23.60;73.40;;;;;;5271033;28;20628;-66
2021/06/03 08:16:26;;;;;;;4.10;2.03;;;23.60;72.90;;;;;;5264904;28;20201;-68
2021/06/03 08:18:58;;;;;;;3.63;2.10;;;23.80;73.20;;;;;;5269028;28;20227;-69
2021/06/03 08:21:33;;;;;;;4.53;1.83;;;24.10;70.70;;;;;;5269608;28;20198;-66
2021/06/03 08:24:06;;;;;;;2.10;1.67;;;23.80;66.50;;;;;;5269802;28;20227;-66
2021/06/03 08:26:38;;;;;;;7.07;2.40;;;23.70;65.20;;;;;;5269791;28;20288;-66
2021/06/03 08:29:10;;;;;;;4.68;2.00;;;23.80;65.60;;;;;;5269580;28;20735;-66
2021/06/03 08:31:42;;;;;;;3.15;2.25;;;23.80;63.70;;;;;;5269608;28;20227;-65
2021/06/03 08:34:16;;;;;;;4.55;1.75;;;23.80;63.00;;;;;;5269015;28;20234;-66
2021/06/03 08:36:48;;;;;;;2.67;1.83;;;23.80;65.20;;;;;;5269119;28;20196;-66
2021/06/03 08:39:20;;;;;;;2.90;1.70;;;24.10;64.80;;;;;;5269332;28;20635;-66
2021/06/03 08:41:54;;;;;;;3.15;1.90;;;24.30;64.40;;;;;;5269568;28;20220;-67
2021/06/03 08:44:30;;;;;;;4.95;2.15;;;24.40;64.70;;;;;;5269123;28;20700;-65
2021/06/03 08:47:03;;;;;;;6.15;2.20;;;23.90;73.30;;;;;;5269246;28;20669;-66
2021/06/03 08:49:37;;;;;;;5.57;2.33;;;24.00;70.50;;;;;;5269237;28;20234;-72
2021/06/03 08:52:08;;;;;;;7.03;2.30;;;23.80;70.40;;;;;;5251461;28;20685;-65
2021/06/03 08:54:41;;;;;;;4.97;2.78;;;23.30;72.60;;;;;;5269273;28;20662;-66
2021/06/03 08:57:16;;;;;;;3.75;2.30;;;23.20;73.50;;;;;;5269239;28;20239;-73
2021/06/03 08:59:49;;;;;;;3.65;2.40;;;23.20;73.80;;;;;;5251526;28;20212;-68
2021/06/03 09:02:21;;;;;;;3.47;2.03;;;23.20;74.40;;;;;;5269700;28;20188;-68
2021/06/03 09:04:53;;;;;;;5.88;2.53;;;23.30;72.40;;;;;;5269567;28;20195;-68
2021/06/03 09:07:33;;;;;;;6.32;3.50;;;23.10;72.70;;;;;;5269623;28;20584;-67
2021/06/03 09:10:33;;;;;;;6.07;2.88;;;23.00;76.10;;;;;;5269396;28;20192;-71
2021/06/03 09:13:13;;;;;;;6.10;2.70;;;22.80;74.30;;;;;;5269165;28;20250;-71
2021/06/03 09:15:48;;;;;;;5.43;2.90;;;22.70;73.60;;;;;;5251771;28;20530;-69
2021/06/03 09:22:39;;;;;;;4.93;2.47;;;23.00;72.70;;;;;;5269998;28;20172;-75
2021/06/03 09:25:31;;;;;;;5.65;2.72;;;22.90;71.10;;;;;;5266184;28;20195;-68
2021/06/03 09:28:37;;;;;;;6.85;2.47;;;22.80;72.90;;;;;;5268507;28;20204;-65
2021/06/03 09:31:13;;;;;;;5.60;2.40;;;22.70;70.70;;;;;;5164127;28;20603;-68
2021/06/03 09:37:44;;;;;;;6.03;2.22;;;22.40;71.00;;;;;;5164721;28;20250;-71
2021/06/03 09:40:22;;;;;;;6.32;2.30;;;22.20;72.10;;;;;;5165979;28;20203;-74
2021/06/03 09:43:10;;;;;;;5.95;2.65;;;22.10;71.20;;;;;;5169187;28;20198;-76
2021/06/03 09:46:15;;;;;;;6.20;2.08;;;21.80;74.40;;;;;;5169111;28;20563;-69
2021/06/03 09:48:49;;;;;;;3.13;2.00;;;21.90;70.20;;;;;;5152492;28;20268;-72
2021/06/03 09:51:25;;;;;;;5.40;2.20;;;21.90;68.90;;;;;;5168719;28;20211;-68
2021/06/03 09:54:01;;;;;;;4.93;2.42;;;22.00;72.10;;;;;;5167856;28;20215;-72
2021/06/03 09:56:35;;;;;;;5.35;2.40;;;22.10;73.10;;;;;;5169207;28;20204;-65
2021/06/03 09:59:15;;;;;;;4.15;2.22;;;22.10;70.60;;;;;;5169170;28;20238;-70
2021/06/03 10:01:57;;;;;;;3.15;2.45;;;21.90;72.80;;;;;;5169587;28;20195;-69
2021/06/03 10:04:37;;;;;;;3.70;2.22;;;22.00;73.00;;;;;;5168663;28;20202;-67
2021/06/03 10:07:16;;;;;;;7.03;2.28;;;21.90;71.80;;;;;;5236848;28;20200;-65
2021/06/03 10:09:53;;;;;;;4.32;2.30;;;21.90;71.20;;;;;;5273043;28;20296;-66
2021/06/03 10:12:27;;;;;;;3.05;2.08;;;21.90;70.20;;;;;;5272962;28;20655;-67
2021/06/03 10:15:00;;;;;;;3.92;2.10;;;22.00;72.10;;;;;;5272862;28;20192;-68
2021/06/03 10:17:36;;;;;;;3.90;2.00;;;22.20;71.40;;;;;;5273355;28;20718;-66
2021/06/03 10:20:12;;;;;;;7.57;2.40;;;22.30;71.30;;;;;;5272873;28;20191;-66
2021/06/03 10:22:46;;;;;;;6.93;2.45;;;22.30;70.40;;;;;;5254657;28;20192;-66
2021/06/03 10:25:20;;;;;;;4.80;2.30;;;22.00;69.60;;;;;;5273084;28;20244;-65
2021/06/03 10:27:56;;;;;;;2.95;2.13;;;22.00;68.90;;;;;;5272106;28;20187;-62
2021/06/03 10:30:37;;;;;;;5.05;2.33;;;22.00;69.00;;;;;;5272764;28;20689;-65
2021/06/03 10:33:12;;;;;;;3.35;2.28;;;22.10;69.70;;;;;;5271258;28;20216;-65
2021/06/03 10:35:47;;;;;;;3.50;2.70;;;22.10;67.50;;;;;;5271906;28;20248;-68
2021/06/03 10:38:22;;;;;;;3.75;2.22;;;22.10;68.10;;;;;;5270737;28;20203;-66
2021/06/03 10:41:02;;;;;;;5.28;2.10;;;22.10;66.00;;;;;;5252975;28;20623;-70
2021/06/03 10:43:37;;;;;;;4.18;2.00;;;21.90;66.30;;;;;;5253466;28;20191;-69
2021/06/03 10:46:09;;;;;;;6.95;3.45;;;22.00;67.00;;;;;;5271953;28;20461;-71
2021/06/03 10:48:42;;;;;;;5.40;3.08;;;22.00;67.40;;;;;;5270615;28;20188;-70
2021/06/03 10:51:17;;;;;;;6.47;2.83;;;22.00;65.50;;;;;;5270020;28;20200;-69
2021/06/03 10:53:49;;;;;;;4.05;2.63;;;22.00;66.50;;;;;;5271187;28;20714;-74
2021/06/03 10:56:24;;;;;;;4.93;2.72;;;22.00;67.90;;;;;;5270840;28;20189;-68
2021/06/03 10:58:56;;;;;;;8.07;3.10;;;21.90;67.50;;;;;;5248998;28;20236;-71
2021/06/03 11:01:30;;;;;;;4.53;2.03;;;21.80;66.70;;;;;;5250781;28;20193;-72
2021/06/03 11:08:21;;;;;;;4.15;2.03;;;21.80;67.10;;;;;;5250351;28;20172;-71
2021/06/03 11:11:09;;;;;;;3.95;2.45;;;21.80;66.20;;;;;;5249842;28;20326;-71
2021/06/03 11:13:47;;;;;;;8.95;2.25;;;21.70;67.00;;;;;;5249779;28;20197;-65
2021/06/03 11:16:22;;;;;;;5.28;2.53;;;21.60;66.00;;;;;;5250274;28;20215;-66
2021/06/03 11:18:57;;;;;;;4.22;2.10;;;21.70;66.80;;;;;;5248716;28;20197;-66
2021/06/03 11:25:36;;;;;;;3.65;1.95;;;21.60;66.00;;;;;;5249919;28;20551;-64
2021/06/03 11:28:27;;;;;;;4.68;2.33;;;21.70;66.30;;;;;;5248920;28;20346;-69
2021/06/03 11:31:22;;;;;;;3.72;2.10;;;21.60;66.00;;;;;;5249711;28;20197;-69
2021/06/03 11:37:34;;;;;;;4.35;2.22;;;21.50;67.10;;;;;;5250984;28;20180;-74
2021/06/03 11:40:09;;;;;;;5.32;2.00;;;21.50;67.30;;;;;;5250515;28;20211;-72
2021/06/03 11:42:49;;;;;;;2.28;1.98;;;21.50;66.30;;;;;;5249805;28;20196;-73
2021/06/03 11:45:28;;;;;;;4.43;2.03;;;21.50;66.90;;;;;;5249974;28;20231;-68
2021/06/03 11:48:21;;;;;;;4.00;2.17;;;21.50;66.20;;;;;;5248768;28;20648;-68
2021/06/03 11:54:57;;;;;;;4.30;2.30;;;21.50;68.20;;;;;;5249758;28;20196;-71
2021/06/03 11:57:31;;;;;;;4.95;2.28;;;21.60;67.50;;;;;;5248269;28;20236;-71
2021/06/03 12:00:11;;;;;;;5.70;2.05;;;21.50;67.40;;;;;;5249810;28;20196;-71
2021/06/03 12:02:44;;;;;;;2.72;2.25;;;21.30;64.90;;;;;;5249249;28;20193;-70
2021/06/03 12:05:17;;;;;;;4.22;2.00;;;21.30;67.10;;;;;;5249842;28;20211;-70
2021/06/03 12:07:51;;;;;;;2.45;1.83;;;21.40;67.80;;;;;;5249715;28;20319;-71
2021/06/03 12:10:30;;;;;;;4.53;2.13;;;21.50;64.90;;;;;;5249987;28;20195;-70
2021/06/03 12:13:02;;;;;;;4.32;2.20;;;21.40;64.90;;;;;;5249104;28;20219;-69
2021/06/03 12:15:41;;;;;;;4.43;2.10;;;21.40;66.50;;;;;;5249182;28;20193;-69
2021/06/03 12:18:13;;;;;;;4.30;2.20;;;21.50;66.60;;;;;;5248945;28;20196;-69
2021/06/03 12:20:46;;;;;;;2.78;2.10;;;21.50;67.30;;;;;;5231181;28;20655;-70
2021/06/03 12:23:20;;;;;;;3.05;1.83;;;21.60;66.80;;;;;;5249269;28;20208;-69
2021/06/03 12:25:52;;;;;;;7.30;2.40;;;21.60;64.90;;;;;;5249131;28;20632;-71
2021/06/03 12:28:24;;;;;;;5.47;2.30;;;21.60;66.70;;;;;;5248938;28;20283;-71
2021/06/03 12:30:56;;;;;;;2.47;2.03;;;21.60;65.80;;;;;;5249145;28;20185;-69
2021/06/03 12:33:29;;;;;;;8.30;2.40;;;21.70;67.50;;;;;;5249268;28;20686;-71
2021/06/03 12:36:05;;;;;;;4.13;2.10;;;21.70;68.00;;;;;;5248950;28;20560;-70
2021/06/03 12:39:01;;;;;;;2.92;2.03;;;21.70;68.60;;;;;;5249035;28;20565;-72
2021/06/03 12:41:36;;;;;;;3.40;2.30;;;21.70;69.10;;;;;;5248866;28;20192;-71
2021/06/03 12:44:14;;;;;;;4.63;2.17;;;21.70;69.70;;;;;;5248528;28;20196;-71
2021/06/03 12:46:53;;;;;;;6.20;2.38;;;21.70;69.10;;;;;;5248981;28;20188;-69
2021/06/03 12:49:27;;;;;;;4.53;2.10;;;21.70;69.20;;;;;;5248868;28;20566;-71
2021/06/03 12:52:05;;;;;;;3.47;1.98;;;21.90;70.00;;;;;;5248762;28;20220;-71
2021/06/03 12:54:41;;;;;;;5.15;2.17;;;21.90;69.90;;;;;;5247665;28;20647;-70
2021/06/03 12:57:18;;;;;;;5.13;2.38;;;21.80;68.50;;;;;;5251349;28;20231;-71
2021/06/03 12:59:53;;;;;;;5.75;2.00;;;21.80;68.20;;;;;;5269708;28;20564;-70
2021/06/03 13:02:33;;;;;;;5.93;2.00;;;21.60;68.30;;;;;;5269273;28;20665;-71
2021/06/03 13:09:01;;;;;;;5.70;2.15;;;21.60;69.20;;;;;;5269510;28;20207;-72
2021/06/03 13:11:38;;;;;;;6.03;1.98;;;21.70;68.40;;;;;;5269436;28;20547;-71
2021/06/03 13:14:16;;;;;;;5.88;1.98;;;21.80;69.60;;;;;;5270647;28;20234;-71
2021/06/03 13:16:53;;;;;;;5.03;2.30;;;21.80;67.40;;;;;;5256543;28;20231;-72
2021/06/03 13:19:26;;;;;;;3.33;1.90;;;21.90;69.10;;;;;;5274163;28;20638;-70
2021/06/03 13:25:55;;;;;;;3.95;2.00;;;21.90;70.00;;;;;;5273839;28;20175;-70
2021/06/03 13:28:31;;;;;;;5.45;2.17;;;21.90;68.30;;;;;;5273652;28;20190;-69
2021/06/03 13:31:06;;;;;;;3.92;1.98;;;21.90;69.20;;;;;;5273685;28;20198;-70
2021/06/03 13:33:39;;;;;;;4.05;1.83;;;21.80;69.70;;;;;;5255709;28;20596;-69
2021/06/03 13:36:13;;;;;;;5.47;2.28;;;21.90;69.70;;;;;;5273960;28;20208;-70
2021/06/03 13:38:48;;;;;;;4.38;1.98;;;21.90;69.30;;;;;;5274204;28;20195;-68
2021/06/03 13:41:20;;;;;;;4.05;1.98;;;21.90;69.90;;;;;;5255896;28;20195;-70
2021/06/03 13:44:01;;;;;;;6.65;2.05;;;21.90;70.80;;;;;;5255424;28;20185;-70
2021/06/03 13:46:44;;;;;;;5.97;2.22;;;21.90;70.40;;;;;;5255289;28;20188;-69
2021/06/03 13:49:31;;;;;;;2.78;1.88;;;21.90;71.90;;;;;;5273444;28;20188;-70
2021/06/03 13:52:05;;;;;;;5.78;1.85;;;21.90;71.80;;;;;;5273128;28;20239;-70
2021/06/03 13:54:37;;;;;;;4.47;1.95;;;21.70;72.20;;;;;;5255273;28;20214;-68
2021/06/03 13:57:08;;;;;;;8.23;2.40;;;21.50;72.60;;;;;;5273333;28;20573;-70
2021/06/03 13:59:55;;;;;;;5.00;2.20;;;21.50;73.60;;;;;;5273073;28;20207;-70
2021/06/03 14:02:28;;;;;;;3.30;2.15;;;21.40;74.20;;;;;;5272982;28;20188;-70
2021/06/03 14:08:56;;;;;;;3.92;2.15;;;21.30;74.70;;;;;;5273461;28;20194;-70
2021/06/03 14:11:39;;;;;;;4.38;2.03;;;21.40;75.90;;;;;;5273388;28;20563;-72
2021/06/03 14:14:14;;;;;;;6.32;2.10;;;21.40;74.80;;;;;;5255770;28;20205;-70
2021/06/03 14:16:48;;;;;;;5.05;1.83;;;21.40;74.40;;;;;;5274022;28;20199;-70
2021/06/03 14:19:25;;;;;;;6.47;1.70;;;21.30;75.00;;;;;;5274209;28;20198;-71
2021/06/03 14:25:53;;;;;;;5.05;2.33;;;21.60;76.00;;;;;;5272378;28;20191;-69
2021/06/03 14:28:27;;;;;;;6.95;1.90;;;21.60;74.80;;;;;;5273129;28;20275;-68
2021/06/03 14:30:59;;;;;;;7.15;1.92;;;21.60;75.20;;;;;;5273478;28;20246;-68